Apple Valley, North Dakota
Current Conditions -  °F | °C
As of 11:52 PM on Wednesday 22 Oct 2014 (Local Time) from KBIS Reporting Station
Clear Clear  
Wind Chill: 43°   Ceiling: Unl
Heat Index: 43°   Visibility: 10mi
Dew Point: 34°   Wind: 3mph
Humidity: 71%   Direction: 200°SSW
Pressure: 29.92"   Gusts: NA
Location:  46.8954°N, 100.519°W
Report Text: KBIS 230452Z 20003KT 10SM CLR 06/01 A2992 RMK AO2 SLP139 T00610011
Loading
Personal Weather Stations






























Interactive Weather Map
Tropical Storm Tracking
New forecast layout! Learn more

10-Day Weather Forecast

Advertisements
Track Severe Weather on mobile